sensor_id;sensor_type;location;lat;lon;timestamp;pressure;altitude;pressure_sealevel;temperature;humidity
64827;BME280;51265;53.972;12.286;2022-11-15T00:00:06;100722.41;;;3.39;100.00
64827;BME280;51265;53.972;12.286;2022-11-15T00:02:55;100724.28;;;3.39;100.00
64827;BME280;51265;53.972;12.286;2022-11-15T00:05:41;100723.38;;;3.33;100.00
64827;BME280;51265;53.972;12.286;2022-11-15T00:08:29;100721.66;;;3.27;100.00
64827;BME280;51265;53.972;12.286;2022-11-15T00:11:14;100713.66;;;3.20;100.00
64827;BME280;51265;53.972;12.286;2022-11-15T00:14:00;100702.94;;;3.14;100.00
64827;BME280;51265;53.972;12.286;2022-11-15T00:16:46;100701.78;;;3.10;100.00
64827;BME280;51265;53.972;12.286;2022-11-15T00:19:32;100703.25;;;3.00;100.00
64827;BME280;51265;53.972;12.286;2022-11-15T00:22:17;100704.59;;;2.98;100.00
64827;BME280;51265;53.972;12.286;2022-11-15T00:25:02;100707.53;;;2.96;100.00
64827;BME280;51265;53.972;12.286;2022-11-15T00:27:47;100712.47;;;2.99;100.00
64827;BME280;51265;53.972;12.286;2022-11-15T00:30:33;100707.03;;;2.99;100.00
64827;BME280;51265;53.972;12.286;2022-11-15T00:33:19;100697.31;;;3.04;100.00
64827;BME280;51265;53.972;12.286;2022-11-15T00:36:08;100693.03;;;3.08;100.00
64827;BME280;51265;53.972;12.286;2022-11-15T00:38:54;100681.59;;;3.06;100.00
64827;BME280;51265;53.972;12.286;2022-11-15T00:41:39;100691.38;;;3.07;100.00
64827;BME280;51265;53.972;12.286;2022-11-15T00:44:24;100676.88;;;3.01;100.00
64827;BME280;51265;53.972;12.286;2022-11-15T00:47:08;100685.19;;;2.94;100.00
64827;BME280;51265;53.972;12.286;2022-11-15T00:49:53;100686.44;;;2.87;100.00
64827;BME280;51265;53.972;12.286;2022-11-15T00:52:52;100672.50;;;2.83;100.00
64827;BME280;51265;53.972;12.286;2022-11-15T00:55:37;100670.50;;;2.79;100.00
64827;BME280;51265;53.972;12.286;2022-11-15T00:58:22;100675.63;;;2.75;100.00
64827;BME280;51265;53.972;12.286;2022-11-15T01:01:09;100672.88;;;2.75;100.00
64827;BME280;51265;53.972;12.286;2022-11-15T01:03:54;100666.28;;;2.71;100.00
64827;BME280;51265;53.972;12.286;2022-11-15T01:06:39;100661.19;;;2.74;100.00
64827;BME280;51265;53.972;12.286;2022-11-15T01:09:24;100671.00;;;2.75;100.00
64827;BME280;51265;53.972;12.286;2022-11-15T01:12:09;100673.97;;;2.74;100.00
64827;BME280;51265;53.972;12.286;2022-11-15T01:14:54;100668.88;;;2.78;100.00
64827;BME280;51265;53.972;12.286;2022-11-15T01:17:39;100667.56;;;2.80;100.00
64827;BME280;51265;53.972;12.286;2022-11-15T01:20:24;100672.50;;;2.83;100.00
64827;BME280;51265;53.972;12.286;2022-11-15T01:23:09;100655.09;;;2.84;100.00
64827;BME280;51265;53.972;12.286;2022-11-15T01:25:59;100651.41;;;2.90;100.00
64827;BME280;51265;53.972;12.286;2022-11-15T01:28:44;100659.47;;;2.85;100.00
64827;BME280;51265;53.972;12.286;2022-11-15T01:31:29;100662.69;;;2.82;100.00
64827;BME280;51265;53.972;12.286;2022-11-15T01:34:14;100652.56;;;2.78;100.00
64827;BME280;51265;53.972;12.286;2022-11-15T01:36:59;100645.69;;;2.75;100.00
64827;BME280;51265;53.972;12.286;2022-11-15T01:39:44;100647.03;;;2.72;100.00
64827;BME280;51265;53.972;12.286;2022-11-15T01:42:29;100640.78;;;2.72;100.00
64827;BME280;51265;53.972;12.286;2022-11-15T01:45:14;100634.19;;;2.68;100.00
64827;BME280;51265;53.972;12.286;2022-11-15T01:48:00;100630.88;;;2.66;100.00
64827;BME280;51265;53.972;12.286;2022-11-15T01:50:46;100631.75;;;2.71;100.00
64827;BME280;51265;53.972;12.286;2022-11-15T01:53:31;100632.50;;;2.67;100.00
64827;BME280;51265;53.972;12.286;2022-11-15T01:56:21;100638.69;;;2.62;100.00
64827;BME280;51265;53.972;12.286;2022-11-15T01:59:08;100637.28;;;2.60;100.00
64827;BME280;51265;53.972;12.286;2022-11-15T02:01:55;100643.31;;;2.62;100.00
64827;BME280;51265;53.972;12.286;2022-11-15T02:04:44;100632.34;;;2.57;100.00
64827;BME280;51265;53.972;12.286;2022-11-15T02:07:30;100637.78;;;2.57;100.00
64827;BME280;51265;53.972;12.286;2022-11-15T02:10:21;100634.47;;;2.55;100.00
64827;BME280;51265;53.972;12.286;2022-11-15T02:13:07;100625.50;;;2.54;100.00
64827;BME280;51265;53.972;12.286;2022-11-15T02:29:12;100632.38;;;2.28;100.00
64827;BME280;51265;53.972;12.286;2022-11-15T02:32:31;100626.84;;;2.23;100.00
64827;BME280;51265;53.972;12.286;2022-11-15T02:35:55;100623.22;;;2.17;100.00
64827;BME280;51265;53.972;12.286;2022-11-15T02:39:00;100621.72;;;2.10;100.00
64827;BME280;51265;53.972;12.286;2022-11-15T02:42:02;100624.53;;;2.15;100.00
64827;BME280;51265;53.972;12.286;2022-11-15T02:44:49;100629.47;;;2.18;100.00
64827;BME280;51265;53.972;12.286;2022-11-15T02:47:41;100632.41;;;2.16;100.00
64827;BME280;51265;53.972;12.286;2022-11-15T02:50:28;100617.44;;;2.14;100.00
64827;BME280;51265;53.972;12.286;2022-11-15T02:53:14;100613.06;;;2.13;100.00
64827;BME280;51265;53.972;12.286;2022-11-15T02:55:59;100617.94;;;2.11;100.00
64827;BME280;51265;53.972;12.286;2022-11-15T03:07:39;100611.81;;;2.04;100.00
64827;BME280;51265;53.972;12.286;2022-11-15T03:14:02;100598.59;;;1.95;100.00
64827;BME280;51265;53.972;12.286;2022-11-15T03:17:01;100596.28;;;1.87;100.00
64827;BME280;51265;53.972;12.286;2022-11-15T03:19:55;100591.81;;;1.81;100.00
64827;BME280;51265;53.972;12.286;2022-11-15T03:22:43;100601.97;;;1.86;100.00
64827;BME280;51265;53.972;12.286;2022-11-15T03:25:29;100607.13;;;1.87;100.00
64827;BME280;51265;53.972;12.286;2022-11-15T03:28:21;100613.75;;;1.91;100.00
64827;BME280;51265;53.972;12.286;2022-11-15T03:31:08;100610.19;;;1.91;100.00
64827;BME280;51265;53.972;12.286;2022-11-15T03:37:26;100607.66;;;1.84;100.00
64827;BME280;51265;53.972;12.286;2022-11-15T03:40:12;100605.41;;;1.81;100.00
64827;BME280;51265;53.972;12.286;2022-11-15T03:46:01;100615.66;;;1.79;100.00
64827;BME280;51265;53.972;12.286;2022-11-15T03:48:52;100607.31;;;1.69;100.00
64827;BME280;51265;53.972;12.286;2022-11-15T03:51:38;100617.22;;;1.75;100.00
64827;BME280;51265;53.972;12.286;2022-11-15T03:54:23;100613.94;;;1.73;100.00
64827;BME280;51265;53.972;12.286;2022-11-15T03:57:08;100618.03;;;1.75;100.00
64827;BME280;51265;53.972;12.286;2022-11-15T03:59:53;100619.44;;;1.78;100.00
64827;BME280;51265;53.972;12.286;2022-11-15T04:02:37;100614.03;;;1.78;100.00
64827;BME280;51265;53.972;12.286;2022-11-15T04:05:22;100600.34;;;1.73;100.00
64827;BME280;51265;53.972;12.286;2022-11-15T04:08:07;100597.38;;;1.74;100.00
64827;BME280;51265;53.972;12.286;2022-11-15T04:10:52;100588.50;;;1.79;100.00
64827;BME280;51265;53.972;12.286;2022-11-15T04:13:37;100596.19;;;1.82;100.00
64827;BME280;51265;53.972;12.286;2022-11-15T04:16:21;100586.88;;;1.78;100.00
64827;BME280;51265;53.972;12.286;2022-11-15T04:19:06;100590.66;;;1.77;100.00
64827;BME280;51265;53.972;12.286;2022-11-15T04:22:09;100600.44;;;1.78;100.00
64827;BME280;51265;53.972;12.286;2022-11-15T04:25:12;100595.00;;;1.78;100.00
64827;BME280;51265;53.972;12.286;2022-11-15T04:27:57;100596.09;;;1.77;100.00
64827;BME280;51265;53.972;12.286;2022-11-15T04:30:42;100594.44;;;1.76;100.00
64827;BME280;51265;53.972;12.286;2022-11-15T04:33:26;100590.31;;;1.73;100.00
64827;BME280;51265;53.972;12.286;2022-11-15T04:36:11;100597.25;;;1.81;100.00
64827;BME280;51265;53.972;12.286;2022-11-15T04:39:14;100595.84;;;1.79;100.00
64827;BME280;51265;53.972;12.286;2022-11-15T04:41:59;100599.72;;;1.83;100.00
64827;BME280;51265;53.972;12.286;2022-11-15T04:44:44;100598.44;;;1.85;100.00
64827;BME280;51265;53.972;12.286;2022-11-15T04:47:29;100600.06;;;1.86;100.00
64827;BME280;51265;53.972;12.286;2022-11-15T04:50:14;100598.91;;;1.82;100.00
64827;BME280;51265;53.972;12.286;2022-11-15T04:52:59;100595.75;;;1.73;100.00
64827;BME280;51265;53.972;12.286;2022-11-15T04:55:45;100592.13;;;1.68;100.00
64827;BME280;51265;53.972;12.286;2022-11-15T04:58:30;100591.03;;;1.69;100.00
64827;BME280;51265;53.972;12.286;2022-11-15T05:01:14;100589.28;;;1.63;100.00
64827;BME280;51265;53.972;12.286;2022-11-15T05:03:59;100599.66;;;1.66;100.00
64827;BME280;51265;53.972;12.286;2022-11-15T05:07:04;100596.38;;;1.64;100.00
64827;BME280;51265;53.972;12.286;2022-11-15T05:09:48;100598.47;;;1.62;100.00
64827;BME280;51265;53.972;12.286;2022-11-15T05:12:33;100592.34;;;1.55;100.00
64827;BME280;51265;53.972;12.286;2022-11-15T05:15:17;100582.84;;;1.40;100.00
64827;BME280;51265;53.972;12.286;2022-11-15T05:18:02;100582.75;;;1.35;100.00
64827;BME280;51265;53.972;12.286;2022-11-15T05:20:47;100587.94;;;1.25;100.00
64827;BME280;51265;53.972;12.286;2022-11-15T05:23:32;100597.16;;;1.24;100.00
64827;BME280;51265;53.972;12.286;2022-11-15T05:26:24;100596.69;;;1.27;100.00
64827;BME280;51265;53.972;12.286;2022-11-15T05:29:09;100596.88;;;1.37;100.00
64827;BME280;51265;53.972;12.286;2022-11-15T05:31:55;100590.50;;;1.43;100.00
64827;BME280;51265;53.972;12.286;2022-11-15T05:34:40;100594.75;;;1.51;100.00
64827;BME280;51265;53.972;12.286;2022-11-15T05:37:24;100589.53;;;1.49;100.00
64827;BME280;51265;53.972;12.286;2022-11-15T05:40:09;100595.47;;;1.46;100.00
64827;BME280;51265;53.972;12.286;2022-11-15T05:42:54;100582.75;;;1.35;100.00
64827;BME280;51265;53.972;12.286;2022-11-15T05:45:38;100587.34;;;1.46;100.00
64827;BME280;51265;53.972;12.286;2022-11-15T05:48:23;100591.78;;;1.53;100.00
64827;BME280;51265;53.972;12.286;2022-11-15T05:51:08;100593.44;;;1.42;100.00
64827;BME280;51265;53.972;12.286;2022-11-15T05:53:55;100599.38;;;1.39;100.00
64827;BME280;51265;53.972;12.286;2022-11-15T05:56:41;100603.63;;;1.35;100.00
64827;BME280;51265;53.972;12.286;2022-11-15T05:59:29;100611.75;;;1.46;100.00
64827;BME280;51265;53.972;12.286;2022-11-15T06:02:15;100606.34;;;1.46;100.00
64827;BME280;51265;53.972;12.286;2022-11-15T06:04:59;100615.41;;;1.52;100.00
64827;BME280;51265;53.972;12.286;2022-11-15T06:07:44;100615.50;;;1.57;100.00
64827;BME280;51265;53.972;12.286;2022-11-15T06:10:28;100613.59;;;1.58;100.00
64827;BME280;51265;53.972;12.286;2022-11-15T06:13:13;100616.31;;;1.58;100.00
64827;BME280;51265;53.972;12.286;2022-11-15T06:15:57;100620.44;;;1.72;100.00
64827;BME280;51265;53.972;12.286;2022-11-15T06:18:42;100622.53;;;1.70;100.00
64827;BME280;51265;53.972;12.286;2022-11-15T06:21:27;100617.38;;;1.57;100.00
64827;BME280;51265;53.972;12.286;2022-11-15T06:24:13;100628.72;;;1.54;100.00
64827;BME280;51265;53.972;12.286;2022-11-15T06:26:58;100630.63;;;1.41;100.00
64827;BME280;51265;53.972;12.286;2022-11-15T06:29:43;100633.94;;;1.43;100.00
64827;BME280;51265;53.972;12.286;2022-11-15T06:32:29;100631.78;;;1.45;100.00
64827;BME280;51265;53.972;12.286;2022-11-15T06:35:14;100634.28;;;1.47;100.00
64827;BME280;51265;53.972;12.286;2022-11-15T06:38:04;100632.72;;;1.63;100.00
64827;BME280;51265;53.972;12.286;2022-11-15T06:40:49;100639.81;;;1.64;100.00
64827;BME280;51265;53.972;12.286;2022-11-15T06:43:35;100652.13;;;1.83;100.00
64827;BME280;51265;53.972;12.286;2022-11-15T06:46:20;100655.84;;;1.77;100.00
64827;BME280;51265;53.972;12.286;2022-11-15T06:49:04;100645.91;;;1.71;100.00
64827;BME280;51265;53.972;12.286;2022-11-15T06:51:49;100648.88;;;1.69;100.00
64827;BME280;51265;53.972;12.286;2022-11-15T06:54:33;100655.13;;;1.70;100.00
64827;BME280;51265;53.972;12.286;2022-11-15T06:57:18;100653.97;;;1.66;100.00
64827;BME280;51265;53.972;12.286;2022-11-15T07:00:04;100666.22;;;1.80;100.00
64827;BME280;51265;53.972;12.286;2022-11-15T07:02:49;100674.66;;;1.95;100.00
64827;BME280;51265;53.972;12.286;2022-11-15T07:05:34;100673.44;;;2.15;100.00
64827;BME280;51265;53.972;12.286;2022-11-15T07:08:18;100674.38;;;2.37;100.00
64827;BME280;51265;53.972;12.286;2022-11-15T07:11:07;100681.75;;;2.54;100.00
64827;BME280;51265;53.972;12.286;2022-11-15T07:13:52;100692.84;;;2.64;100.00
64827;BME280;51265;53.972;12.286;2022-11-15T07:16:37;100682.13;;;2.74;100.00
64827;BME280;51265;53.972;12.286;2022-11-15T07:19:22;100689.88;;;2.82;100.00
64827;BME280;51265;53.972;12.286;2022-11-15T07:22:06;100685.75;;;2.96;100.00
64827;BME280;51265;53.972;12.286;2022-11-15T07:24:51;100688.91;;;3.05;100.00
64827;BME280;51265;53.972;12.286;2022-11-15T07:27:35;100684.44;;;3.16;100.00
64827;BME280;51265;53.972;12.286;2022-11-15T07:30:20;100684.63;;;3.26;100.00
64827;BME280;51265;53.972;12.286;2022-11-15T07:33:05;100683.13;;;3.35;100.00
64827;BME280;51265;53.972;12.286;2022-11-15T07:35:49;100674.00;;;3.46;100.00
64827;BME280;51265;53.972;12.286;2022-11-15T07:38:35;100678.81;;;3.56;100.00
64827;BME280;51265;53.972;12.286;2022-11-15T07:41:19;100682.47;;;3.67;100.00
64827;BME280;51265;53.972;12.286;2022-11-15T07:44:04;100689.97;;;3.77;100.00
64827;BME280;51265;53.972;12.286;2022-11-15T07:46:49;100702.91;;;3.86;100.00
64827;BME280;51265;53.972;12.286;2022-11-15T07:49:34;100694.94;;;4.02;100.00
64827;BME280;51265;53.972;12.286;2022-11-15T07:52:18;100682.94;;;4.03;100.00
64827;BME280;51265;53.972;12.286;2022-11-15T07:55:04;100683.88;;;4.13;100.00
64827;BME280;51265;53.972;12.286;2022-11-15T07:57:48;100675.97;;;4.12;100.00
64827;BME280;51265;53.972;12.286;2022-11-15T08:00:34;100691.59;;;4.21;100.00
64827;BME280;51265;53.972;12.286;2022-11-15T08:03:19;100694.69;;;4.30;100.00
64827;BME280;51265;53.972;12.286;2022-11-15T08:06:04;100680.13;;;4.41;100.00
64827;BME280;51265;53.972;12.286;2022-11-15T08:08:49;100689.38;;;4.40;100.00
64827;BME280;51265;53.972;12.286;2022-11-15T08:11:33;100678.78;;;4.44;100.00
64827;BME280;51265;53.972;12.286;2022-11-15T08:14:18;100676.09;;;4.49;100.00
64827;BME280;51265;53.972;12.286;2022-11-15T08:17:02;100675.38;;;4.59;100.00
64827;BME280;51265;53.972;12.286;2022-11-15T08:19:47;100668.91;;;4.65;100.00
64827;BME280;51265;53.972;12.286;2022-11-15T08:22:33;100666.22;;;4.70;100.00
64827;BME280;51265;53.972;12.286;2022-11-15T08:25:18;100649.84;;;4.70;100.00
64827;BME280;51265;53.972;12.286;2022-11-15T08:28:05;100641.50;;;4.82;100.00
64827;BME280;51265;53.972;12.286;2022-11-15T08:30:50;100631.72;;;4.86;100.00
64827;BME280;51265;53.972;12.286;2022-11-15T08:33:35;100621.59;;;4.86;100.00
64827;BME280;51265;53.972;12.286;2022-11-15T08:36:19;100618.41;;;4.94;100.00
64827;BME280;51265;53.972;12.286;2022-11-15T08:39:04;100625.28;;;5.02;100.00
64827;BME280;51265;53.972;12.286;2022-11-15T08:41:49;100627.22;;;5.07;100.00
64827;BME280;51265;53.972;12.286;2022-11-15T08:44:34;100625.63;;;5.11;100.00
64827;BME280;51265;53.972;12.286;2022-11-15T08:47:18;100623.19;;;5.14;100.00
64827;BME280;51265;53.972;12.286;2022-11-15T08:50:04;100629.50;;;5.20;100.00
64827;BME280;51265;53.972;12.286;2022-11-15T08:52:49;100633.34;;;5.24;100.00
64827;BME280;51265;53.972;12.286;2022-11-15T08:55:38;100633.38;;;5.29;100.00
64827;BME280;51265;53.972;12.286;2022-11-15T08:58:23;100627.72;;;5.41;100.00
64827;BME280;51265;53.972;12.286;2022-11-15T09:01:15;100631.88;;;5.54;100.00
64827;BME280;51265;53.972;12.286;2022-11-15T09:04:01;100626.22;;;5.65;100.00
64827;BME280;51265;53.972;12.286;2022-11-15T09:06:45;100623.50;;;5.75;100.00
64827;BME280;51265;53.972;12.286;2022-11-15T09:09:30;100627.63;;;5.78;100.00
64827;BME280;51265;53.972;12.286;2022-11-15T09:12:14;100638.00;;;5.76;100.00
64827;BME280;51265;53.972;12.286;2022-11-15T09:14:59;100644.31;;;5.82;100.00
64827;BME280;51265;53.972;12.286;2022-11-15T09:17:44;100641.38;;;5.93;100.00
64827;BME280;51265;53.972;12.286;2022-11-15T09:20:28;100648.53;;;6.05;100.00
64827;BME280;51265;53.972;12.286;2022-11-15T09:23:13;100641.16;;;6.05;100.00
64827;BME280;51265;53.972;12.286;2022-11-15T09:26:02;100637.59;;;6.05;100.00
64827;BME280;51265;53.972;12.286;2022-11-15T09:28:47;100636.53;;;6.11;100.00
64827;BME280;51265;53.972;12.286;2022-11-15T09:31:32;100636.25;;;6.07;100.00
64827;BME280;51265;53.972;12.286;2022-11-15T09:34:17;100622.88;;;6.16;100.00
64827;BME280;51265;53.972;12.286;2022-11-15T09:37:02;100627.25;;;6.22;100.00
64827;BME280;51265;53.972;12.286;2022-11-15T09:39:46;100613.03;;;6.30;100.00
64827;BME280;51265;53.972;12.286;2022-11-15T09:45:48;100612.25;;;6.40;100.00
64827;BME280;51265;53.972;12.286;2022-11-15T09:51:45;100598.31;;;6.46;100.00
64827;BME280;51265;53.972;12.286;2022-11-15T09:54:35;100591.22;;;6.61;100.00
64827;BME280;51265;53.972;12.286;2022-11-15T09:57:11;100578.63;;;6.70;100.00
64827;BME280;51265;53.972;12.286;2022-11-15T10:04:56;100567.66;;;6.95;100.00
64827;BME280;51265;53.972;12.286;2022-11-15T10:12:57;100559.34;;;7.31;100.00
64827;BME280;51265;53.972;12.286;2022-11-15T10:15:23;100544.00;;;7.40;100.00
64827;BME280;51265;53.972;12.286;2022-11-15T10:20:29;100528.63;;;7.44;100.00
64827;BME280;51265;53.972;12.286;2022-11-15T10:22:59;100528.97;;;7.28;100.00
64827;BME280;51265;53.972;12.286;2022-11-15T10:25:28;100525.88;;;7.39;100.00
64827;BME280;51265;53.972;12.286;2022-11-15T10:33:21;100509.38;;;7.55;100.00
64827;BME280;51265;53.972;12.286;2022-11-15T10:46:28;100468.97;;;8.15;100.00
64827;BME280;51265;53.972;12.286;2022-11-15T10:49:12;100459.09;;;8.14;100.00
64827;BME280;51265;53.972;12.286;2022-11-15T10:51:57;100458.78;;;8.20;100.00
64827;BME280;51265;53.972;12.286;2022-11-15T10:54:28;100461.25;;;8.22;100.00
64827;BME280;51265;53.972;12.286;2022-11-15T10:57:01;100450.50;;;8.26;100.00
64827;BME280;51265;53.972;12.286;2022-11-15T10:59:33;100450.22;;;8.27;100.00
64827;BME280;51265;53.972;12.286;2022-11-15T11:02:01;100448.53;;;8.31;100.00
64827;BME280;51265;53.972;12.286;2022-11-15T11:04:27;100447.44;;;8.37;100.00
64827;BME280;51265;53.972;12.286;2022-11-15T11:06:55;100439.63;;;8.50;100.00
64827;BME280;51265;53.972;12.286;2022-11-15T11:09:37;100437.78;;;8.69;100.00
64827;BME280;51265;53.972;12.286;2022-11-15T11:12:05;100424.00;;;8.74;100.00
64827;BME280;51265;53.972;12.286;2022-11-15T11:14:33;100421.91;;;8.66;100.00
64827;BME280;51265;53.972;12.286;2022-11-15T11:17:13;100416.41;;;8.66;100.00
64827;BME280;51265;53.972;12.286;2022-11-15T11:25:42;100414.41;;;8.71;100.00
64827;BME280;51265;53.972;12.286;2022-11-15T11:36:42;100402.13;;;9.12;100.00
64827;BME280;51265;53.972;12.286;2022-11-15T11:44:51;100396.28;;;8.94;100.00
64827;BME280;51265;53.972;12.286;2022-11-15T11:47:31;100401.75;;;9.00;100.00
64827;BME280;51265;53.972;12.286;2022-11-15T11:50:10;100396.25;;;9.00;100.00
64827;BME280;51265;53.972;12.286;2022-11-15T11:53:02;100396.47;;;9.03;100.00
64827;BME280;51265;53.972;12.286;2022-11-15T12:00:45;100396.38;;;9.32;100.00
64827;BME280;51265;53.972;12.286;2022-11-15T12:03:55;100394.78;;;9.26;100.00
64827;BME280;51265;53.972;12.286;2022-11-15T12:06:31;100397.84;;;9.43;100.00
64827;BME280;51265;53.972;12.286;2022-11-15T12:12:09;100398.53;;;9.54;100.00
64827;BME280;51265;53.972;12.286;2022-11-15T12:14:46;100397.09;;;9.57;100.00
64827;BME280;51265;53.972;12.286;2022-11-15T12:17:16;100402.16;;;9.50;100.00
64827;BME280;51265;53.972;12.286;2022-11-15T12:19:43;100397.19;;;9.52;100.00
64827;BME280;51265;53.972;12.286;2022-11-15T12:22:20;100393.69;;;9.65;100.00
64827;BME280;51265;53.972;12.286;2022-11-15T12:24:58;100388.03;;;9.75;100.00
64827;BME280;51265;53.972;12.286;2022-11-15T12:27:32;100394.41;;;9.89;100.00
64827;BME280;51265;53.972;12.286;2022-11-15T12:30:03;100383.53;;;9.98;100.00
64827;BME280;51265;53.972;12.286;2022-11-15T12:32:38;100378.28;;;10.15;100.00
64827;BME280;51265;53.972;12.286;2022-11-15T12:35:19;100363.09;;;10.18;100.00
64827;BME280;51265;53.972;12.286;2022-11-15T12:37:50;100352.47;;;10.11;100.00
64827;BME280;51265;53.972;12.286;2022-11-15T12:40:27;100337.75;;;9.88;100.00
64827;BME280;51265;53.972;12.286;2022-11-15T12:45:36;100337.81;;;9.51;100.00
64827;BME280;51265;53.972;12.286;2022-11-15T12:56:17;100332.97;;;9.23;100.00
64827;BME280;51265;53.972;12.286;2022-11-15T12:58:58;100352.06;;;9.15;100.00
64827;BME280;51265;53.972;12.286;2022-11-15T13:06:47;100347.31;;;9.02;100.00
64827;BME280;51265;53.972;12.286;2022-11-15T13:11:56;100350.84;;;8.83;100.00
64827;BME280;51265;53.972;12.286;2022-11-15T13:14:51;100347.16;;;8.69;100.00
64827;BME280;51265;53.972;12.286;2022-11-15T13:17:47;100338.53;;;8.57;100.00
64827;BME280;51265;53.972;12.286;2022-11-15T13:22:48;100343.31;;;8.46;100.00
64827;BME280;51265;53.972;12.286;2022-11-15T13:33:44;100328.72;;;8.21;100.00
64827;BME280;51265;53.972;12.286;2022-11-15T13:36:18;100330.34;;;7.98;100.00
64827;BME280;51265;53.972;12.286;2022-11-15T13:39:03;100323.97;;;7.74;100.00
64827;BME280;51265;53.972;12.286;2022-11-15T13:41:35;100327.91;;;7.63;100.00
64827;BME280;51265;53.972;12.286;2022-11-15T13:44:03;100328.00;;;7.47;100.00
64827;BME280;51265;53.972;12.286;2022-11-15T13:46:30;100321.75;;;7.42;100.00
64827;BME280;51265;53.972;12.286;2022-11-15T13:49:04;100317.75;;;7.29;100.00
64827;BME280;51265;53.972;12.286;2022-11-15T13:51:35;100317.22;;;7.22;100.00
64827;BME280;51265;53.972;12.286;2022-11-15T13:57:00;100322.22;;;7.10;100.00
64827;BME280;51265;53.972;12.286;2022-11-15T13:59:44;100323.91;;;7.06;100.00
64827;BME280;51265;53.972;12.286;2022-11-15T14:02:16;100328.31;;;7.02;100.00
64827;BME280;51265;53.972;12.286;2022-11-15T14:04:55;100331.06;;;6.96;100.00
64827;BME280;51265;53.972;12.286;2022-11-15T14:07:25;100330.00;;;6.92;100.00
64827;BME280;51265;53.972;12.286;2022-11-15T14:09:51;100344.78;;;6.91;100.00
64827;BME280;51265;53.972;12.286;2022-11-15T14:12:25;100350.81;;;6.88;100.00
64827;BME280;51265;53.972;12.286;2022-11-15T14:14:52;100349.19;;;6.87;100.00
64827;BME280;51265;53.972;12.286;2022-11-15T14:17:34;100358.50;;;6.86;100.00
64827;BME280;51265;53.972;12.286;2022-11-15T14:20:00;100372.75;;;6.83;100.00
64827;BME280;51265;53.972;12.286;2022-11-15T14:22:28;100374.38;;;6.84;100.00
64827;BME280;51265;53.972;12.286;2022-11-15T14:27:40;100370.00;;;6.88;100.00
64827;BME280;51265;53.972;12.286;2022-11-15T14:30:12;100370.56;;;6.80;100.00
64827;BME280;51265;53.972;12.286;2022-11-15T14:32:45;100374.41;;;6.79;100.00
64827;BME280;51265;53.972;12.286;2022-11-15T14:35:18;100371.16;;;6.72;100.00
64827;BME280;51265;53.972;12.286;2022-11-15T14:37:45;100365.97;;;6.65;100.00
64827;BME280;51265;53.972;12.286;2022-11-15T14:40:14;100366.84;;;6.51;100.00
64827;BME280;51265;53.972;12.286;2022-11-15T14:42:42;100367.94;;;6.49;100.00
64827;BME280;51265;53.972;12.286;2022-11-15T14:45:20;100377.22;;;6.54;100.00
64827;BME280;51265;53.972;12.286;2022-11-15T14:47:47;100372.63;;;6.44;100.00
64827;BME280;51265;53.972;12.286;2022-11-15T14:50:19;100366.34;;;6.33;100.00
64827;BME280;51265;53.972;12.286;2022-11-15T14:52:45;100360.34;;;6.31;100.00
64827;BME280;51265;53.972;12.286;2022-11-15T14:55:25;100366.38;;;6.23;100.00
64827;BME280;51265;53.972;12.286;2022-11-15T14:57:52;100368.53;;;6.21;100.00
64827;BME280;51265;53.972;12.286;2022-11-15T15:00:19;100363.63;;;6.28;100.00
64827;BME280;51265;53.972;12.286;2022-11-15T15:02:46;100372.38;;;6.20;100.00
64827;BME280;51265;53.972;12.286;2022-11-15T15:07:38;100372.66;;;6.08;100.00
64827;BME280;51265;53.972;12.286;2022-11-15T15:10:04;100367.19;;;6.13;100.00
64827;BME280;51265;53.972;12.286;2022-11-15T15:12:30;100377.31;;;6.13;100.00
64827;BME280;51265;53.972;12.286;2022-11-15T15:14:56;100375.69;;;6.07;100.00
64827;BME280;51265;53.972;12.286;2022-11-15T15:17:21;100372.41;;;5.99;100.00
64827;BME280;51265;53.972;12.286;2022-11-15T15:19:47;100371.84;;;5.92;100.00
64827;BME280;51265;53.972;12.286;2022-11-15T15:22:18;100379.75;;;5.84;100.00
64827;BME280;51265;53.972;12.286;2022-11-15T15:24:45;100378.94;;;5.73;100.00
64827;BME280;51265;53.972;12.286;2022-11-15T15:27:12;100383.84;;;5.71;100.00
64827;BME280;51265;53.972;12.286;2022-11-15T15:29:38;100386.56;;;5.71;100.00
64827;BME280;51265;53.972;12.286;2022-11-15T15:32:05;100386.28;;;5.67;100.00
64827;BME280;51265;53.972;12.286;2022-11-15T15:34:31;100387.69;;;5.70;100.00
64827;BME280;51265;53.972;12.286;2022-11-15T15:37:21;100394.50;;;5.62;100.00
64827;BME280;51265;53.972;12.286;2022-11-15T15:39:51;100391.47;;;5.54;100.00
64827;BME280;51265;53.972;12.286;2022-11-15T15:42:19;100399.09;;;5.52;100.00
64827;BME280;51265;53.972;12.286;2022-11-15T15:44:49;100395.31;;;5.53;100.00
64827;BME280;51265;53.972;12.286;2022-11-15T15:47:18;100390.91;;;5.52;100.00
64827;BME280;51265;53.972;12.286;2022-11-15T15:49:45;100388.47;;;5.55;100.00
64827;BME280;51265;53.972;12.286;2022-11-15T15:52:11;100396.41;;;5.57;100.00
64827;BME280;51265;53.972;12.286;2022-11-15T15:54:38;100405.66;;;5.56;100.00
64827;BME280;51265;53.972;12.286;2022-11-15T15:57:04;100407.88;;;5.59;100.00
64827;BME280;51265;53.972;12.286;2022-11-15T15:59:30;100411.69;;;5.63;100.00
64827;BME280;51265;53.972;12.286;2022-11-15T16:01:56;100403.50;;;5.58;100.00
64827;BME280;51265;53.972;12.286;2022-11-15T16:04:22;100406.78;;;5.60;100.00
64827;BME280;51265;53.972;12.286;2022-11-15T16:06:48;100408.41;;;5.50;100.00